createdAt,value
2023-10-08T00:02:28.791Z,3.88
2023-10-08T00:05:01.402Z,3.80
2023-10-08T00:07:29.049Z,3.55
2023-10-08T00:09:56.457Z,3.90
2023-10-08T00:12:23.206Z,3.88
2023-10-08T00:14:50.682Z,3.50
2023-10-08T00:17:18.888Z,3.95
2023-10-08T00:19:45.646Z,3.58
2023-10-08T00:22:14.142Z,2.95
2023-10-08T00:24:44.584Z,3.17
2023-10-08T00:27:11.277Z,3.25
2023-10-08T00:29:42.146Z,3.28
2023-10-08T00:32:14.724Z,3.25
2023-10-08T00:34:42.978Z,3.30
2023-10-08T00:37:11.928Z,3.30
2023-10-08T00:39:39.752Z,3.30
2023-10-08T00:42:08.427Z,3.00
2023-10-08T00:44:52.777Z,3.60
2023-10-08T00:47:22.560Z,3.72
2023-10-08T00:49:55.767Z,3.17
2023-10-08T00:52:31.194Z,3.20
2023-10-08T00:55:10.562Z,3.13
2023-10-08T00:57:37.927Z,3.67
2023-10-08T01:00:16.703Z,3.45
2023-10-08T01:02:47.718Z,3.63
2023-10-08T01:05:19.205Z,2.95
2023-10-08T01:07:49.822Z,3.30
2023-10-08T01:10:21.088Z,3.50
2023-10-08T01:13:17.067Z,3.15
2023-10-08T01:15:46.079Z,3.33
2023-10-08T01:18:16.550Z,3.45
2023-10-08T01:20:49.406Z,3.05
2023-10-08T01:23:18.330Z,3.22
2023-10-08T01:25:51.948Z,2.90
2023-10-08T01:28:28.317Z,4.32
2023-10-08T01:30:56.036Z,5.55
2023-10-08T01:33:23.787Z,4.63
2023-10-08T01:35:51.310Z,4.35
2023-10-08T01:38:24.806Z,5.07
2023-10-08T01:40:52.295Z,4.95
2023-10-08T01:43:19.454Z,5.25
2023-10-08T01:45:49.612Z,5.45
2023-10-08T01:48:21.420Z,4.73
2023-10-08T01:50:49.026Z,4.82
2023-10-08T01:53:17.338Z,4.30
2023-10-08T01:55:50.183Z,4.32
2023-10-08T01:58:18.194Z,3.90
2023-10-08T02:00:48.321Z,3.60
2023-10-08T02:03:16.806Z,3.43
2023-10-08T02:05:44.308Z,3.30
2023-10-08T02:08:13.429Z,3.33
2023-10-08T02:10:42.057Z,3.25
2023-10-08T02:13:09.699Z,3.20
2023-10-08T02:15:37.941Z,3.38
2023-10-08T02:18:05.485Z,3.50
2023-10-08T02:20:32.466Z,3.50
2023-10-08T02:23:00.923Z,3.90
2023-10-08T02:25:28.797Z,3.72
2023-10-08T02:27:55.848Z,3.20
2023-10-08T02:30:22.552Z,3.40
2023-10-08T02:32:50.635Z,3.50
2023-10-08T02:35:17.731Z,3.83
2023-10-08T02:37:46.889Z,3.72
2023-10-08T02:40:31.751Z,4.07
2023-10-08T02:43:01.850Z,4.63
2023-10-08T02:45:30.315Z,4.40
2023-10-08T02:47:58.505Z,4.13
2023-10-08T02:50:28.470Z,4.13
2023-10-08T02:52:55.337Z,4.27
2023-10-08T02:55:35.797Z,4.05
2023-10-08T02:58:06.026Z,3.72
2023-10-08T03:00:35.620Z,3.92
2023-10-08T03:03:10.699Z,3.58
2023-10-08T03:05:37.817Z,3.72
2023-10-08T03:08:12.940Z,3.38
2023-10-08T03:10:41.547Z,3.55
2023-10-08T03:13:11.170Z,3.45
2023-10-08T03:15:58.092Z,3.17
2023-10-08T03:18:25.914Z,3.45
2023-10-08T03:20:52.591Z,3.17
2023-10-08T03:23:35.813Z,3.67
2023-10-08T03:26:11.887Z,3.00
2023-10-08T03:28:42.219Z,3.33
2023-10-08T03:31:17.495Z,4.15
2023-10-08T03:33:50.473Z,3.00
2023-10-08T03:36:23.767Z,3.38
2023-10-08T03:38:53.615Z,3.30
2023-10-08T03:41:31.394Z,3.15
2023-10-08T03:44:07.701Z,3.67
2023-10-08T03:46:42.044Z,3.58
2023-10-08T03:49:16.264Z,3.47
2023-10-08T03:51:43.726Z,3.42
2023-10-08T03:54:10.347Z,3.45
2023-10-08T03:56:42.536Z,3.30
2023-10-08T03:59:14.631Z,3.45
2023-10-08T04:01:45.168Z,3.38
2023-10-08T04:04:15.529Z,3.72
2023-10-08T04:06:50.548Z,4.35
2023-10-08T04:09:25.023Z,4.35
2023-10-08T04:11:54.522Z,3.70
2023-10-08T04:14:24.425Z,4.43
2023-10-08T04:16:54.966Z,4.43
2023-10-08T04:19:28.129Z,3.72
2023-10-08T04:21:55.706Z,3.17
2023-10-08T04:24:30.358Z,3.47
2023-10-08T04:26:58.859Z,3.67
2023-10-08T04:29:27.219Z,4.28
2023-10-08T04:32:02.899Z,3.72
2023-10-08T04:34:30.496Z,4.35
2023-10-08T04:36:59.000Z,3.45
2023-10-08T04:39:34.617Z,3.15
2023-10-08T04:42:11.928Z,3.10
2023-10-08T04:44:42.134Z,3.10
2023-10-08T04:47:29.127Z,3.47
2023-10-08T04:49:57.871Z,3.05
2023-10-08T04:52:26.447Z,3.13
2023-10-08T04:54:53.265Z,3.17
2023-10-08T04:57:23.938Z,3.25
2023-10-08T04:59:51.846Z,2.90
2023-10-08T05:02:35.480Z,4.13
2023-10-08T05:05:11.126Z,4.32
2023-10-08T05:07:46.792Z,3.70
2023-10-08T05:10:26.375Z,4.25
2023-10-08T05:13:06.768Z,5.30
2023-10-08T05:15:48.578Z,6.70
2023-10-08T05:18:24.818Z,6.75
2023-10-08T05:20:52.582Z,5.80
2023-10-08T05:23:30.109Z,5.50
2023-10-08T05:26:07.758Z,6.07
2023-10-08T05:28:48.223Z,7.45
2023-10-08T05:31:17.901Z,6.50
2023-10-08T05:34:03.042Z,8.43
2023-10-08T05:36:37.098Z,8.10
2023-10-08T05:39:22.952Z,7.55
2023-10-08T05:42:08.143Z,8.73
2023-10-08T05:44:54.987Z,9.68
2023-10-08T05:47:33.834Z,8.75
2023-10-08T05:50:13.098Z,11.57
2023-10-08T05:52:52.136Z,9.68
2023-10-08T05:55:26.596Z,10.73
2023-10-08T05:58:04.255Z,8.48
2023-10-08T06:00:47.482Z,8.23
2023-10-08T06:03:34.130Z,7.90
2023-10-08T06:06:17.547Z,8.27
2023-10-08T06:08:52.998Z,7.78
2023-10-08T06:11:42.593Z,7.03
2023-10-08T06:14:18.355Z,7.13
2023-10-08T06:16:48.021Z,6.78
2023-10-08T06:19:15.559Z,7.72
2023-10-08T06:21:43.862Z,6.38
2023-10-08T06:24:11.335Z,6.13
2023-10-08T06:26:49.970Z,6.60
2023-10-08T06:29:20.298Z,6.18
2023-10-08T06:31:52.495Z,6.17
2023-10-08T06:34:22.553Z,6.20
2023-10-08T06:36:57.264Z,6.03
2023-10-08T06:39:34.799Z,6.03
2023-10-08T06:42:03.034Z,5.60
2023-10-08T06:44:30.136Z,5.85
2023-10-08T06:46:57.985Z,6.20
2023-10-08T06:49:24.872Z,5.93
2023-10-08T06:51:53.180Z,5.15
2023-10-08T06:54:19.873Z,5.50
2023-10-08T06:56:53.450Z,5.18
2023-10-08T06:59:24.788Z,5.20
2023-10-08T07:01:52.902Z,5.47
2023-10-08T07:04:20.502Z,5.47
2023-10-08T07:06:47.867Z,4.65
2023-10-08T07:09:24.340Z,4.47
2023-10-08T07:11:57.469Z,5.40
2023-10-08T07:14:27.986Z,4.18
2023-10-08T07:19:41.717Z,5.35
2023-10-08T07:22:23.987Z,7.25
2023-10-08T07:24:52.390Z,6.97
2023-10-08T07:27:23.055Z,6.07
2023-10-08T07:29:50.802Z,6.05
2023-10-08T07:32:19.995Z,8.85
2023-10-08T07:34:46.874Z,8.68
2023-10-08T07:37:15.351Z,8.88
2023-10-08T07:39:48.268Z,8.05
2023-10-08T07:42:15.345Z,7.13
2023-10-08T07:44:42.431Z,6.05
2023-10-08T07:47:14.641Z,6.00
2023-10-08T07:49:44.824Z,6.00
2023-10-08T07:52:16.967Z,6.10
2023-10-08T07:54:44.799Z,5.25
2023-10-08T07:57:13.566Z,5.72
2023-10-08T07:59:43.298Z,6.32
2023-10-08T08:02:13.538Z,6.78
2023-10-08T08:04:51.968Z,7.05
2023-10-08T08:07:20.000Z,6.40
2023-10-08T08:10:00.945Z,5.68
2023-10-08T08:14:56.779Z,5.45
2023-10-08T08:17:24.082Z,5.55
2023-10-08T08:19:53.808Z,6.20
2023-10-08T08:22:22.757Z,5.68
2023-10-08T08:25:03.628Z,4.80
2023-10-08T08:27:33.670Z,4.68
2023-10-08T08:30:17.184Z,4.28
2023-10-08T08:32:51.553Z,4.18
2023-10-08T08:35:21.195Z,4.30
2023-10-08T08:37:51.188Z,4.05
2023-10-08T08:40:20.363Z,4.03
2023-10-08T08:42:48.491Z,4.00
2023-10-08T08:45:21.562Z,3.63
2023-10-08T08:47:49.098Z,4.13
2023-10-08T08:50:17.271Z,4.55
2023-10-08T08:52:46.908Z,4.63
2023-10-08T08:55:17.775Z,4.93
2023-10-08T08:57:48.223Z,5.35
2023-10-08T09:00:18.277Z,5.10
2023-10-08T09:02:50.673Z,4.85
2023-10-08T09:05:28.073Z,4.97
2023-10-08T09:07:58.124Z,6.10
2023-10-08T09:10:29.348Z,5.25
2023-10-08T09:13:00.510Z,5.93
2023-10-08T09:15:29.643Z,5.80
2023-10-08T09:17:57.615Z,5.53
2023-10-08T09:20:24.748Z,5.60
2023-10-08T09:23:14.650Z,5.30
2023-10-08T09:25:42.726Z,5.47
2023-10-08T09:28:09.604Z,5.00
2023-10-08T09:30:39.242Z,5.22
2023-10-08T09:33:07.603Z,5.07
2023-10-08T09:35:34.923Z,5.30
2023-10-08T09:38:06.666Z,5.22
2023-10-08T09:40:33.258Z,5.50
2023-10-08T09:43:00.611Z,5.50
2023-10-08T09:45:27.612Z,5.38
2023-10-08T09:47:56.186Z,5.03
2023-10-08T09:50:31.288Z,5.22
2023-10-08T09:53:21.287Z,5.13
2023-10-08T09:55:58.132Z,5.10
2023-10-08T09:58:27.323Z,4.85
2023-10-08T10:00:58.564Z,4.85
2023-10-08T10:03:28.103Z,5.07
2023-10-08T10:06:01.647Z,6.18
2023-10-08T10:08:36.893Z,5.85
2023-10-08T10:11:04.366Z,5.25
2023-10-08T10:13:42.729Z,4.63
2023-10-08T10:16:11.219Z,5.60
2023-10-08T10:18:38.236Z,4.43
2023-10-08T10:21:14.168Z,4.75
2023-10-08T10:23:51.931Z,4.53
2023-10-08T10:26:35.531Z,4.97
2023-10-08T10:29:22.665Z,5.40
2023-10-08T10:31:54.791Z,4.85
2023-10-08T10:34:29.951Z,4.97
2023-10-08T10:37:09.997Z,5.38
2023-10-08T10:39:41.079Z,4.82
2023-10-08T10:42:21.360Z,6.10
2023-10-08T10:44:53.826Z,5.18
2023-10-08T10:47:27.641Z,4.65
2023-10-08T10:50:07.714Z,5.10
2023-10-08T10:52:45.943Z,4.47
2023-10-08T10:55:15.395Z,5.00
2023-10-08T10:57:43.913Z,4.72
2023-10-08T11:00:30.841Z,4.20
2023-10-08T11:03:01.247Z,4.20
2023-10-08T11:05:32.328Z,3.95
2023-10-08T11:08:08.070Z,4.68
2023-10-08T11:10:43.662Z,4.15
2023-10-08T11:13:16.727Z,4.07
2023-10-08T11:15:52.849Z,3.80
2023-10-08T11:18:22.538Z,3.70
2023-10-08T11:21:10.941Z,4.15
2023-10-08T11:23:42.760Z,4.95
2023-10-08T11:26:09.810Z,3.92
2023-10-08T11:28:44.500Z,4.43
2023-10-08T11:31:15.809Z,3.78
2023-10-08T11:33:44.317Z,3.80
2023-10-08T11:36:20.100Z,3.92
2023-10-08T11:38:52.081Z,4.25
2023-10-08T11:41:22.321Z,4.90
2023-10-08T11:43:54.906Z,4.68
2023-10-08T11:46:41.055Z,4.18
2023-10-08T11:49:09.148Z,4.38
2023-10-08T11:51:36.571Z,3.85
2023-10-08T11:54:03.714Z,4.32
2023-10-08T11:56:30.804Z,4.35
2023-10-08T11:58:58.279Z,4.28
2023-10-08T12:01:28.420Z,4.57
2023-10-08T12:04:00.690Z,4.75
2023-10-08T12:06:30.790Z,4.47
2023-10-08T12:08:59.990Z,4.28
2023-10-08T12:11:33.228Z,4.05
2023-10-08T12:14:00.817Z,3.83
2023-10-08T12:16:30.854Z,4.40
2023-10-08T12:19:01.254Z,4.32
2023-10-08T12:21:30.986Z,4.38
2023-10-08T12:24:02.647Z,3.83
2023-10-08T12:26:29.603Z,4.30
2023-10-08T12:28:56.496Z,4.40
2023-10-08T12:31:23.394Z,4.03
2023-10-08T12:33:54.671Z,4.22
2023-10-08T12:36:24.339Z,4.68
2023-10-08T12:38:59.163Z,4.85
2023-10-08T12:41:29.068Z,5.07
2023-10-08T12:43:55.835Z,4.50
2023-10-08T12:46:26.995Z,4.30
2023-10-08T12:48:55.934Z,4.68
2023-10-08T12:51:26.862Z,3.85
2023-10-08T12:54:00.579Z,4.95
2023-10-08T12:56:37.421Z,4.75
2023-10-08T12:59:16.351Z,3.90
2023-10-08T13:01:44.923Z,4.43
2023-10-08T13:04:17.539Z,4.50
2023-10-08T13:06:46.809Z,4.20
2023-10-08T13:09:14.056Z,4.80
2023-10-08T13:11:41.721Z,4.88
2023-10-08T13:14:08.526Z,4.47
2023-10-08T13:16:38.954Z,4.20
2023-10-08T13:19:05.897Z,5.35
2023-10-08T13:21:33.975Z,4.53
2023-10-08T13:24:01.171Z,4.65
2023-10-08T13:26:32.386Z,5.05
2023-10-08T13:28:59.843Z,4.80
2023-10-08T13:31:28.128Z,4.50
2023-10-08T13:33:57.881Z,4.72
2023-10-08T13:36:25.130Z,4.97
2023-10-08T13:38:53.046Z,4.90
2023-10-08T13:41:19.964Z,4.18
2023-10-08T13:43:52.756Z,3.90
2023-10-08T13:46:24.174Z,4.22
2023-10-08T13:48:51.425Z,4.90
2023-10-08T13:51:24.756Z,4.95
2023-10-08T13:54:01.696Z,4.05
2023-10-08T13:56:32.134Z,4.53
2023-10-08T13:59:20.773Z,4.20
2023-10-08T14:01:47.962Z,5.05
2023-10-08T14:04:20.976Z,5.03
2023-10-08T14:06:56.333Z,5.13
2023-10-08T14:09:32.489Z,4.60
2023-10-08T14:12:00.842Z,4.75
2023-10-08T14:14:31.418Z,4.85
2023-10-08T14:17:07.182Z,4.57
2023-10-08T14:19:40.059Z,5.57
2023-10-08T14:22:09.783Z,4.60
2023-10-08T14:24:39.468Z,5.10
2023-10-08T14:27:13.073Z,5.32
2023-10-08T14:29:48.555Z,5.13
2023-10-08T14:32:16.754Z,4.43
2023-10-08T14:34:52.613Z,5.15
2023-10-08T14:37:38.082Z,4.65
2023-10-08T14:40:24.080Z,5.00
2023-10-08T14:42:59.318Z,4.22
2023-10-08T14:45:28.709Z,4.88
2023-10-08T14:47:56.922Z,4.20
2023-10-08T14:50:24.880Z,4.85
2023-10-08T14:52:51.555Z,4.90
2023-10-08T14:55:18.266Z,4.90
2023-10-08T14:57:44.958Z,4.10
2023-10-08T15:00:12.458Z,4.30
2023-10-08T15:02:39.909Z,4.55
2023-10-08T15:05:07.436Z,4.25
2023-10-08T15:07:35.800Z,4.55
2023-10-08T15:10:02.476Z,4.20
2023-10-08T15:12:29.307Z,4.28
2023-10-08T15:14:56.075Z,4.30
2023-10-08T15:17:22.779Z,4.15
2023-10-08T15:19:49.524Z,4.28
2023-10-08T15:22:16.282Z,4.30
2023-10-08T15:24:44.509Z,4.20
2023-10-08T15:27:11.781Z,4.72
2023-10-08T15:29:38.941Z,4.32
2023-10-08T15:32:06.085Z,4.15
2023-10-08T15:34:39.247Z,4.45
2023-10-08T15:37:07.980Z,4.47
2023-10-08T15:39:34.691Z,4.20
2023-10-08T15:42:01.382Z,5.10
2023-10-08T15:44:28.441Z,4.90
2023-10-08T15:46:55.080Z,4.18
2023-10-08T15:49:21.963Z,4.63
2023-10-08T15:51:49.119Z,4.57
2023-10-08T15:54:21.736Z,4.88
2023-10-08T15:56:48.821Z,4.72
2023-10-08T15:59:15.596Z,4.18
2023-10-08T16:01:47.576Z,5.03
2023-10-08T16:04:14.418Z,4.30
2023-10-08T16:06:41.228Z,4.20
2023-10-08T16:09:08.000Z,4.72
2023-10-08T16:11:36.022Z,4.43
2023-10-08T16:14:02.859Z,4.82
2023-10-08T16:16:29.536Z,4.25
2023-10-08T16:18:56.692Z,8.35
2023-10-08T16:21:23.374Z,5.82
2023-10-08T16:23:51.159Z,6.18
2023-10-08T16:26:18.771Z,5.03
2023-10-08T16:28:45.486Z,5.00
2023-10-08T16:31:12.290Z,5.28
2023-10-08T16:33:39.012Z,5.55
2023-10-08T16:36:10.753Z,6.05
2023-10-08T16:38:38.185Z,7.35
2023-10-08T16:41:05.116Z,5.80
2023-10-08T16:43:31.794Z,5.70
2023-10-08T16:45:59.880Z,5.47
2023-10-08T16:48:26.738Z,5.25
2023-10-08T16:50:53.526Z,5.25
2023-10-08T16:53:21.258Z,5.22
2023-10-08T16:55:48.392Z,5.68
2023-10-08T16:58:15.002Z,4.70
2023-10-08T17:00:41.632Z,4.70
2023-10-08T17:03:08.442Z,4.50
2023-10-08T17:05:35.159Z,3.90
2023-10-08T17:08:02.071Z,3.50
2023-10-08T17:10:30.980Z,3.88
2023-10-08T17:12:59.042Z,4.60
2023-10-08T17:15:27.903Z,4.10
2023-10-08T17:17:54.931Z,4.00
2023-10-08T17:20:24.284Z,4.30
2023-10-08T17:22:50.863Z,3.80
2023-10-08T17:25:17.674Z,4.35
2023-10-08T17:27:48.139Z,3.92
2023-10-08T17:30:20.637Z,4.20
2023-10-08T17:32:49.244Z,4.38
2023-10-08T17:35:19.923Z,4.50
2023-10-08T17:37:47.652Z,3.67
2023-10-08T17:40:14.881Z,3.92
2023-10-08T17:42:42.557Z,4.80
2023-10-08T17:45:15.180Z,3.55
2023-10-08T17:47:42.736Z,4.60
2023-10-08T17:50:09.983Z,4.53
2023-10-08T17:52:36.814Z,4.35
2023-10-08T17:55:07.846Z,3.67
2023-10-08T17:57:35.349Z,4.00
2023-10-08T18:00:02.460Z,4.18
2023-10-08T18:02:32.498Z,4.38
2023-10-08T18:04:59.286Z,3.78
2023-10-08T18:07:28.264Z,3.95
2023-10-08T18:09:54.944Z,4.03
2023-10-08T18:12:21.893Z,4.70
2023-10-08T18:14:49.218Z,3.78
2023-10-08T18:17:16.604Z,3.72
2023-10-08T18:19:45.009Z,3.50
2023-10-08T18:22:12.104Z,4.07
2023-10-08T18:24:39.561Z,3.72
2023-10-08T18:27:09.275Z,3.75
2023-10-08T18:29:36.369Z,4.47
2023-10-08T18:32:06.953Z,4.13
2023-10-08T18:34:33.928Z,4.15
2023-10-08T18:37:01.657Z,4.05
2023-10-08T18:39:28.660Z,4.28
2023-10-08T18:41:55.384Z,5.15
2023-10-08T18:44:22.125Z,6.60
2023-10-08T18:46:49.283Z,5.70
2023-10-08T18:49:16.661Z,5.85
2023-10-08T18:51:44.318Z,5.75
2023-10-08T18:54:13.271Z,6.35
2023-10-08T18:56:40.628Z,5.50
2023-10-08T18:59:09.903Z,4.88
2023-10-08T19:01:38.991Z,4.93
2023-10-08T19:04:07.718Z,4.95
2023-10-08T19:06:34.738Z,5.20
2023-10-08T19:09:03.866Z,4.93
2023-10-08T19:11:33.432Z,4.65
2023-10-08T19:14:00.274Z,4.50
2023-10-08T19:16:27.201Z,4.75
2023-10-08T19:18:55.981Z,4.38
2023-10-08T19:21:28.227Z,5.47
2023-10-08T19:23:56.361Z,4.80
2023-10-08T19:26:31.960Z,4.68
2023-10-08T19:28:59.825Z,4.85
2023-10-08T19:31:27.424Z,4.78
2023-10-08T19:33:55.973Z,4.50
2023-10-08T19:36:24.337Z,5.93
2023-10-08T19:38:51.326Z,4.78
2023-10-08T19:41:22.638Z,5.30
2023-10-08T19:43:51.394Z,5.30
2023-10-08T19:46:23.848Z,5.35
2023-10-08T19:48:51.788Z,5.22
2023-10-08T19:51:18.569Z,5.30
2023-10-08T19:53:51.002Z,6.43
2023-10-08T19:56:19.175Z,4.85
2023-10-08T19:58:46.880Z,5.70
2023-10-08T20:01:17.261Z,5.25
2023-10-08T20:03:44.613Z,4.75
2023-10-08T20:06:12.611Z,4.93
2023-10-08T20:08:39.974Z,5.07
2023-10-08T20:11:08.420Z,5.20
2023-10-08T20:13:36.438Z,5.88
2023-10-08T20:16:06.984Z,5.22
2023-10-08T20:18:34.622Z,5.40
2023-10-08T20:21:05.428Z,5.68
2023-10-08T20:23:36.797Z,5.93
2023-10-08T20:26:22.094Z,6.70
2023-10-08T20:28:52.436Z,5.75
2023-10-08T20:31:19.094Z,5.80
2023-10-08T20:33:45.774Z,6.07
2023-10-08T20:36:12.579Z,6.13
2023-10-08T20:38:40.444Z,6.03
2023-10-08T20:41:15.267Z,5.50
2023-10-08T20:43:41.964Z,4.50
2023-10-08T20:46:08.728Z,5.35
2023-10-08T20:48:35.444Z,5.32
2023-10-08T20:51:02.190Z,5.45
2023-10-08T20:53:28.942Z,5.85
2023-10-08T20:55:56.637Z,5.22
2023-10-08T20:58:26.294Z,6.13
2023-10-08T21:00:56.810Z,5.40
2023-10-08T21:03:23.580Z,5.35
2023-10-08T21:05:50.601Z,5.10
2023-10-08T21:08:17.694Z,5.82
2023-10-08T21:13:13.900Z,6.57
2023-10-08T21:15:41.878Z,6.05
2023-10-08T21:18:08.805Z,4.85
2023-10-08T21:20:35.516Z,5.00
2023-10-08T21:23:05.909Z,5.20
2023-10-08T21:25:32.703Z,5.63
2023-10-08T21:27:59.995Z,4.80
2023-10-08T21:30:26.820Z,4.60
2023-10-08T21:32:54.835Z,5.10
2023-10-08T21:35:22.179Z,4.65
2023-10-08T21:37:50.753Z,4.55
2023-10-08T21:40:19.459Z,4.40
2023-10-08T21:42:52.734Z,4.72
2023-10-08T21:45:20.382Z,6.53
2023-10-08T21:47:48.672Z,6.10
2023-10-08T21:50:17.724Z,5.82
2023-10-08T21:52:48.537Z,5.78
2023-10-08T21:55:19.634Z,5.63
2023-10-08T22:00:23.223Z,5.20
2023-10-08T22:02:59.359Z,5.00
2023-10-08T22:05:30.662Z,5.15
2023-10-08T22:08:05.138Z,4.80
2023-10-08T22:10:34.789Z,5.53
2023-10-08T22:13:05.104Z,5.00
2023-10-08T22:15:32.074Z,5.10
2023-10-08T22:18:03.667Z,4.72
2023-10-08T22:20:40.249Z,4.82
2023-10-08T22:23:16.401Z,5.18
2023-10-08T22:25:52.587Z,5.22
2023-10-08T22:28:21.058Z,4.53
2023-10-08T22:30:52.928Z,4.85
2023-10-08T22:33:35.267Z,5.97
2023-10-08T22:36:21.417Z,5.38
2023-10-08T22:38:51.505Z,5.38
2023-10-08T22:41:20.198Z,5.13
2023-10-08T22:43:46.954Z,5.13
2023-10-08T22:46:16.797Z,4.97
2023-10-08T22:48:50.949Z,4.80
2023-10-08T22:51:25.937Z,5.25
2023-10-08T22:53:57.831Z,4.90
2023-10-08T22:56:25.489Z,4.82
2023-10-08T22:58:53.932Z,5.03
2023-10-08T23:01:22.249Z,5.72
2023-10-08T23:03:54.045Z,5.63
2023-10-08T23:06:22.813Z,5.97
2023-10-08T23:08:50.252Z,5.43
2023-10-08T23:11:17.382Z,5.78
2023-10-08T23:13:45.364Z,4.95
2023-10-08T23:16:15.822Z,5.03
2023-10-08T23:18:44.194Z,4.30
2023-10-08T23:21:13.013Z,5.13
2023-10-08T23:23:40.351Z,4.97
2023-10-08T23:26:17.264Z,4.78
2023-10-08T23:28:45.346Z,4.82
2023-10-08T23:31:12.394Z,5.28
2023-10-08T23:33:40.907Z,5.15
2023-10-08T23:36:15.713Z,4.88
2023-10-08T23:38:47.442Z,5.20
2023-10-08T23:41:17.977Z,5.07
2023-10-08T23:43:54.718Z,4.35
2023-10-08T23:46:31.617Z,4.70
2023-10-08T23:49:06.387Z,4.55
2023-10-08T23:51:39.434Z,4.90
2023-10-08T23:54:13.903Z,5.40
2023-10-08T23:56:45.471Z,4.47
2023-10-08T23:59:18.059Z,4.60
